sensor_id;sensor_type;location;lat;lon;timestamp;temperature;humidity
52044;DHT22;38053;53.100;6.078;2024-01-27T00:00:09;3.30;99.90
52044;DHT22;38053;53.100;6.078;2024-01-27T00:02:36;3.20;99.90
52044;DHT22;38053;53.100;6.078;2024-01-27T00:08:18;3.20;99.90
52044;DHT22;38053;53.100;6.078;2024-01-27T00:10:44;3.30;99.90
52044;DHT22;38053;53.100;6.078;2024-01-27T00:13:11;3.30;99.90
52044;DHT22;38053;53.100;6.078;2024-01-27T00:15:37;3.30;99.90
52044;DHT22;38053;53.100;6.078;2024-01-27T00:18:02;3.40;99.90
52044;DHT22;38053;53.100;6.078;2024-01-27T00:20:28;3.50;99.90
52044;DHT22;38053;53.100;6.078;2024-01-27T00:22:54;3.50;99.90
52044;DHT22;38053;53.100;6.078;2024-01-27T00:25:19;3.40;99.90
52044;DHT22;38053;53.100;6.078;2024-01-27T00:27:45;3.40;99.90
52044;DHT22;38053;53.100;6.078;2024-01-27T00:30:14;3.30;99.90
52044;DHT22;38053;53.100;6.078;2024-01-27T00:32:40;3.20;99.90
52044;DHT22;38053;53.100;6.078;2024-01-27T00:35:07;3.20;99.90
52044;DHT22;38053;53.100;6.078;2024-01-27T00:37:34;3.20;99.90
52044;DHT22;38053;53.100;6.078;2024-01-27T00:40:00;3.10;99.90
52044;DHT22;38053;53.100;6.078;2024-01-27T00:42:25;3.10;99.90
52044;DHT22;38053;53.100;6.078;2024-01-27T00:44:51;3.20;99.90
52044;DHT22;38053;53.100;6.078;2024-01-27T00:47:17;3.20;99.90
52044;DHT22;38053;53.100;6.078;2024-01-27T00:49:42;3.10;99.90
52044;DHT22;38053;53.100;6.078;2024-01-27T00:52:08;3.10;99.90
52044;DHT22;38053;53.100;6.078;2024-01-27T00:54:33;3.10;99.90
52044;DHT22;38053;53.100;6.078;2024-01-27T00:56:59;3.10;99.90
52044;DHT22;38053;53.100;6.078;2024-01-27T00:59:25;3.10;99.90
52044;DHT22;38053;53.100;6.078;2024-01-27T01:01:50;3.00;99.90
52044;DHT22;38053;53.100;6.078;2024-01-27T01:04:16;3.00;99.90
52044;DHT22;38053;53.100;6.078;2024-01-27T01:06:42;2.90;99.90
52044;DHT22;38053;53.100;6.078;2024-01-27T01:09:08;2.90;99.90
52044;DHT22;38053;53.100;6.078;2024-01-27T01:11:34;2.90;99.90
52044;DHT22;38053;53.100;6.078;2024-01-27T01:14:02;2.80;99.90
52044;DHT22;38053;53.100;6.078;2024-01-27T01:16:28;2.90;99.90
52044;DHT22;38053;53.100;6.078;2024-01-27T01:18:53;2.90;99.90
52044;DHT22;38053;53.100;6.078;2024-01-27T01:21:19;2.90;99.90
52044;DHT22;38053;53.100;6.078;2024-01-27T01:23:45;3.00;99.90
52044;DHT22;38053;53.100;6.078;2024-01-27T01:26:10;3.00;99.90
52044;DHT22;38053;53.100;6.078;2024-01-27T01:28:36;3.00;99.90
52044;DHT22;38053;53.100;6.078;2024-01-27T01:31:37;3.00;99.90
52044;DHT22;38053;53.100;6.078;2024-01-27T01:34:03;3.00;99.90
52044;DHT22;38053;53.100;6.078;2024-01-27T01:36:29;3.00;99.90
52044;DHT22;38053;53.100;6.078;2024-01-27T01:38:54;3.00;99.90
52044;DHT22;38053;53.100;6.078;2024-01-27T01:41:20;2.90;99.90
52044;DHT22;38053;53.100;6.078;2024-01-27T01:43:45;2.90;99.90
52044;DHT22;38053;53.100;6.078;2024-01-27T01:46:11;2.90;99.90
52044;DHT22;38053;53.100;6.078;2024-01-27T01:48:37;2.90;99.90
52044;DHT22;38053;53.100;6.078;2024-01-27T01:51:03;2.90;99.90
52044;DHT22;38053;53.100;6.078;2024-01-27T01:53:29;2.80;99.90
52044;DHT22;38053;53.100;6.078;2024-01-27T01:55:55;2.80;99.90
52044;DHT22;38053;53.100;6.078;2024-01-27T01:58:22;2.80;99.90
52044;DHT22;38053;53.100;6.078;2024-01-27T02:00:48;2.80;99.90
52044;DHT22;38053;53.100;6.078;2024-01-27T02:03:14;2.70;99.90
52044;DHT22;38053;53.100;6.078;2024-01-27T02:05:40;2.70;99.90
52044;DHT22;38053;53.100;6.078;2024-01-27T02:08:06;2.60;99.90
52044;DHT22;38053;53.100;6.078;2024-01-27T02:10:31;2.70;99.90
52044;DHT22;38053;53.100;6.078;2024-01-27T02:13:16;2.60;99.90
52044;DHT22;38053;53.100;6.078;2024-01-27T02:15:46;2.60;99.90
52044;DHT22;38053;53.100;6.078;2024-01-27T02:18:11;2.60;99.90
52044;DHT22;38053;53.100;6.078;2024-01-27T02:20:37;2.50;99.90
52044;DHT22;38053;53.100;6.078;2024-01-27T02:23:04;2.50;99.90
52044;DHT22;38053;53.100;6.078;2024-01-27T02:25:31;2.50;99.90
52044;DHT22;38053;53.100;6.078;2024-01-27T02:27:56;2.50;99.90
52044;DHT22;38053;53.100;6.078;2024-01-27T02:30:22;2.60;99.90
52044;DHT22;38053;53.100;6.078;2024-01-27T02:32:47;2.60;99.90
52044;DHT22;38053;53.100;6.078;2024-01-27T02:35:13;2.60;99.90
52044;DHT22;38053;53.100;6.078;2024-01-27T02:37:41;2.60;99.90
52044;DHT22;38053;53.100;6.078;2024-01-27T02:40:07;2.60;99.90
52044;DHT22;38053;53.100;6.078;2024-01-27T02:42:33;2.50;99.90
52044;DHT22;38053;53.100;6.078;2024-01-27T02:44:59;2.50;99.90
52044;DHT22;38053;53.100;6.078;2024-01-27T02:47:24;2.60;99.90
52044;DHT22;38053;53.100;6.078;2024-01-27T02:49:50;2.60;99.90
52044;DHT22;38053;53.100;6.078;2024-01-27T02:52:16;2.60;99.90
52044;DHT22;38053;53.100;6.078;2024-01-27T02:54:41;2.60;99.90
52044;DHT22;38053;53.100;6.078;2024-01-27T02:57:07;2.60;99.90
52044;DHT22;38053;53.100;6.078;2024-01-27T02:59:32;2.60;99.90
52044;DHT22;38053;53.100;6.078;2024-01-27T03:01:58;2.60;99.90
52044;DHT22;38053;53.100;6.078;2024-01-27T03:04:24;2.50;99.90
52044;DHT22;38053;53.100;6.078;2024-01-27T03:06:49;2.50;99.90
52044;DHT22;38053;53.100;6.078;2024-01-27T03:09:16;2.50;99.90
52044;DHT22;38053;53.100;6.078;2024-01-27T03:11:42;2.50;99.90
52044;DHT22;38053;53.100;6.078;2024-01-27T03:14:07;2.50;99.90
52044;DHT22;38053;53.100;6.078;2024-01-27T03:16:33;2.50;99.90
52044;DHT22;38053;53.100;6.078;2024-01-27T03:18:59;2.60;99.90
52044;DHT22;38053;53.100;6.078;2024-01-27T03:21:25;2.60;99.90
52044;DHT22;38053;53.100;6.078;2024-01-27T03:23:50;2.50;99.90
52044;DHT22;38053;53.100;6.078;2024-01-27T03:26:16;2.50;99.90
52044;DHT22;38053;53.100;6.078;2024-01-27T03:28:42;2.50;99.90
52044;DHT22;38053;53.100;6.078;2024-01-27T03:31:07;2.50;99.90
52044;DHT22;38053;53.100;6.078;2024-01-27T03:33:33;2.50;99.90
52044;DHT22;38053;53.100;6.078;2024-01-27T03:35:58;2.50;99.90
52044;DHT22;38053;53.100;6.078;2024-01-27T03:38:24;2.50;99.90
52044;DHT22;38053;53.100;6.078;2024-01-27T03:40:49;2.40;99.90
52044;DHT22;38053;53.100;6.078;2024-01-27T03:43:15;2.40;99.90
52044;DHT22;38053;53.100;6.078;2024-01-27T03:45:41;2.40;99.90
52044;DHT22;38053;53.100;6.078;2024-01-27T03:48:09;2.40;99.90
52044;DHT22;38053;53.100;6.078;2024-01-27T03:50:35;2.40;99.90
52044;DHT22;38053;53.100;6.078;2024-01-27T03:53:00;2.40;99.90
52044;DHT22;38053;53.100;6.078;2024-01-27T03:55:32;2.40;99.90
52044;DHT22;38053;53.100;6.078;2024-01-27T03:57:59;2.40;99.90
52044;DHT22;38053;53.100;6.078;2024-01-27T04:00:25;2.40;99.90
52044;DHT22;38053;53.100;6.078;2024-01-27T04:02:51;2.40;99.90
52044;DHT22;38053;53.100;6.078;2024-01-27T04:05:17;2.40;99.90
52044;DHT22;38053;53.100;6.078;2024-01-27T04:07:42;2.40;99.90
52044;DHT22;38053;53.100;6.078;2024-01-27T04:10:08;2.50;99.90
52044;DHT22;38053;53.100;6.078;2024-01-27T04:12:34;2.50;99.90
52044;DHT22;38053;53.100;6.078;2024-01-27T04:14:59;2.50;99.90
52044;DHT22;38053;53.100;6.078;2024-01-27T04:17:25;2.50;99.90
52044;DHT22;38053;53.100;6.078;2024-01-27T04:19:51;2.50;99.90
52044;DHT22;38053;53.100;6.078;2024-01-27T04:22:17;2.50;99.90
52044;DHT22;38053;53.100;6.078;2024-01-27T04:24:42;2.50;99.90
52044;DHT22;38053;53.100;6.078;2024-01-27T04:27:17;2.50;99.90
52044;DHT22;38053;53.100;6.078;2024-01-27T04:29:42;2.50;99.90
52044;DHT22;38053;53.100;6.078;2024-01-27T04:32:08;2.50;99.90
52044;DHT22;38053;53.100;6.078;2024-01-27T04:34:34;2.50;99.90
52044;DHT22;38053;53.100;6.078;2024-01-27T04:36:59;2.50;99.90
52044;DHT22;38053;53.100;6.078;2024-01-27T04:39:25;2.40;99.90
52044;DHT22;38053;53.100;6.078;2024-01-27T04:41:50;2.40;99.90
52044;DHT22;38053;53.100;6.078;2024-01-27T04:44:16;2.40;99.90
52044;DHT22;38053;53.100;6.078;2024-01-27T04:46:42;2.40;99.90
52044;DHT22;38053;53.100;6.078;2024-01-27T04:49:07;2.40;99.90
52044;DHT22;38053;53.100;6.078;2024-01-27T04:51:33;2.40;99.90
52044;DHT22;38053;53.100;6.078;2024-01-27T04:53:59;2.40;99.90
52044;DHT22;38053;53.100;6.078;2024-01-27T04:56:24;2.40;99.90
52044;DHT22;38053;53.100;6.078;2024-01-27T04:58:50;2.40;99.90
52044;DHT22;38053;53.100;6.078;2024-01-27T05:01:15;2.40;99.90
52044;DHT22;38053;53.100;6.078;2024-01-27T05:03:41;2.40;99.90
52044;DHT22;38053;53.100;6.078;2024-01-27T05:06:10;2.40;99.90
52044;DHT22;38053;53.100;6.078;2024-01-27T05:08:36;2.40;99.90
52044;DHT22;38053;53.100;6.078;2024-01-27T05:11:06;2.40;99.90
52044;DHT22;38053;53.100;6.078;2024-01-27T05:13:32;2.40;99.90
52044;DHT22;38053;53.100;6.078;2024-01-27T05:15:57;2.50;99.90
52044;DHT22;38053;53.100;6.078;2024-01-27T05:18:23;2.50;99.90
52044;DHT22;38053;53.100;6.078;2024-01-27T05:20:48;2.50;99.90
52044;DHT22;38053;53.100;6.078;2024-01-27T05:23:14;2.60;99.90
52044;DHT22;38053;53.100;6.078;2024-01-27T05:25:40;2.60;99.90
52044;DHT22;38053;53.100;6.078;2024-01-27T05:28:06;2.70;99.90
52044;DHT22;38053;53.100;6.078;2024-01-27T05:30:31;2.70;99.90
52044;DHT22;38053;53.100;6.078;2024-01-27T05:32:57;2.70;99.90
52044;DHT22;38053;53.100;6.078;2024-01-27T05:35:23;2.60;99.90
52044;DHT22;38053;53.100;6.078;2024-01-27T05:37:48;2.60;99.90
52044;DHT22;38053;53.100;6.078;2024-01-27T05:40:14;2.60;99.90
52044;DHT22;38053;53.100;6.078;2024-01-27T05:42:40;2.60;99.90
52044;DHT22;38053;53.100;6.078;2024-01-27T05:45:08;2.60;99.90
52044;DHT22;38053;53.100;6.078;2024-01-27T05:47:35;2.50;99.90
52044;DHT22;38053;53.100;6.078;2024-01-27T05:50:01;2.50;99.90
52044;DHT22;38053;53.100;6.078;2024-01-27T05:52:27;2.50;99.90
52044;DHT22;38053;53.100;6.078;2024-01-27T05:55:06;2.50;99.90
52044;DHT22;38053;53.100;6.078;2024-01-27T05:57:32;2.40;99.90
52044;DHT22;38053;53.100;6.078;2024-01-27T05:59:58;2.40;99.90
52044;DHT22;38053;53.100;6.078;2024-01-27T06:02:23;2.40;99.90
52044;DHT22;38053;53.100;6.078;2024-01-27T06:04:49;2.30;99.90
52044;DHT22;38053;53.100;6.078;2024-01-27T06:07:15;2.30;99.90
52044;DHT22;38053;53.100;6.078;2024-01-27T06:09:40;2.30;99.90
52044;DHT22;38053;53.100;6.078;2024-01-27T06:12:06;2.30;99.90
52044;DHT22;38053;53.100;6.078;2024-01-27T06:14:32;2.40;99.90
52044;DHT22;38053;53.100;6.078;2024-01-27T06:16:57;2.30;99.90
52044;DHT22;38053;53.100;6.078;2024-01-27T06:19:23;2.30;99.90
52044;DHT22;38053;53.100;6.078;2024-01-27T06:21:49;2.30;99.90
52044;DHT22;38053;53.100;6.078;2024-01-27T06:24:17;2.30;99.90
52044;DHT22;38053;53.100;6.078;2024-01-27T06:26:43;2.30;99.90
52044;DHT22;38053;53.100;6.078;2024-01-27T06:29:09;2.30;99.90
52044;DHT22;38053;53.100;6.078;2024-01-27T06:31:34;2.30;99.90
52044;DHT22;38053;53.100;6.078;2024-01-27T06:34:00;2.30;99.90
52044;DHT22;38053;53.100;6.078;2024-01-27T06:36:26;2.30;99.90
52044;DHT22;38053;53.100;6.078;2024-01-27T06:38:52;2.30;99.90
52044;DHT22;38053;53.100;6.078;2024-01-27T06:41:19;2.40;99.90
52044;DHT22;38053;53.100;6.078;2024-01-27T06:43:47;2.40;99.90
52044;DHT22;38053;53.100;6.078;2024-01-27T06:46:13;2.30;99.90
52044;DHT22;38053;53.100;6.078;2024-01-27T06:48:39;2.30;99.90
52044;DHT22;38053;53.100;6.078;2024-01-27T06:51:05;2.30;99.90
52044;DHT22;38053;53.100;6.078;2024-01-27T06:53:30;2.40;99.90
52044;DHT22;38053;53.100;6.078;2024-01-27T06:55:56;2.40;99.90
52044;DHT22;38053;53.100;6.078;2024-01-27T06:58:21;2.40;99.90
52044;DHT22;38053;53.100;6.078;2024-01-27T07:00:47;2.40;99.90
52044;DHT22;38053;53.100;6.078;2024-01-27T07:03:13;2.30;99.90
52044;DHT22;38053;53.100;6.078;2024-01-27T07:05:38;2.30;99.90
52044;DHT22;38053;53.100;6.078;2024-01-27T07:08:07;2.30;99.90
52044;DHT22;38053;53.100;6.078;2024-01-27T07:10:34;2.30;99.90
52044;DHT22;38053;53.100;6.078;2024-01-27T07:12:59;2.30;99.90
52044;DHT22;38053;53.100;6.078;2024-01-27T07:15:25;2.30;99.90
52044;DHT22;38053;53.100;6.078;2024-01-27T07:17:52;2.30;99.90
52044;DHT22;38053;53.100;6.078;2024-01-27T07:20:19;2.20;99.90
52044;DHT22;38053;53.100;6.078;2024-01-27T07:22:48;2.20;99.90
52044;DHT22;38053;53.100;6.078;2024-01-27T07:25:14;2.20;99.90
52044;DHT22;38053;53.100;6.078;2024-01-27T07:27:40;2.20;99.90
52044;DHT22;38053;53.100;6.078;2024-01-27T07:30:06;2.20;99.90
52044;DHT22;38053;53.100;6.078;2024-01-27T07:32:34;2.10;99.90
52044;DHT22;38053;53.100;6.078;2024-01-27T07:34:59;2.10;99.90
52044;DHT22;38053;53.100;6.078;2024-01-27T07:37:25;2.00;99.90
52044;DHT22;38053;53.100;6.078;2024-01-27T07:39:50;2.00;99.90
52044;DHT22;38053;53.100;6.078;2024-01-27T07:42:16;2.00;99.90
52044;DHT22;38053;53.100;6.078;2024-01-27T07:44:42;2.00;99.90
52044;DHT22;38053;53.100;6.078;2024-01-27T07:47:08;2.00;99.90
52044;DHT22;38053;53.100;6.078;2024-01-27T07:49:34;2.00;99.90
52044;DHT22;38053;53.100;6.078;2024-01-27T07:52:00;2.00;99.90
52044;DHT22;38053;53.100;6.078;2024-01-27T07:54:26;2.00;99.90
52044;DHT22;38053;53.100;6.078;2024-01-27T07:56:51;2.10;99.90
52044;DHT22;38053;53.100;6.078;2024-01-27T07:59:17;2.10;99.90
52044;DHT22;38053;53.100;6.078;2024-01-27T08:01:44;2.10;99.90
52044;DHT22;38053;53.100;6.078;2024-01-27T08:04:09;2.10;99.90
52044;DHT22;38053;53.100;6.078;2024-01-27T08:06:49;2.20;99.90
52044;DHT22;38053;53.100;6.078;2024-01-27T08:09:15;2.10;99.90
52044;DHT22;38053;53.100;6.078;2024-01-27T08:11:42;2.20;99.90
52044;DHT22;38053;53.100;6.078;2024-01-27T08:14:07;2.20;99.90
52044;DHT22;38053;53.100;6.078;2024-01-27T08:16:33;2.20;99.90
52044;DHT22;38053;53.100;6.078;2024-01-27T08:19:04;2.20;99.90
52044;DHT22;38053;53.100;6.078;2024-01-27T08:21:30;2.20;99.90
52044;DHT22;38053;53.100;6.078;2024-01-27T08:23:56;2.30;99.90
52044;DHT22;38053;53.100;6.078;2024-01-27T08:26:22;2.30;99.90
52044;DHT22;38053;53.100;6.078;2024-01-27T08:28:47;2.30;99.90
52044;DHT22;38053;53.100;6.078;2024-01-27T08:31:13;2.40;99.90
52044;DHT22;38053;53.100;6.078;2024-01-27T08:33:39;2.40;99.90
52044;DHT22;38053;53.100;6.078;2024-01-27T08:36:04;2.40;99.90
52044;DHT22;38053;53.100;6.078;2024-01-27T08:38:30;2.50;99.90
52044;DHT22;38053;53.100;6.078;2024-01-27T08:40:55;2.50;99.90
52044;DHT22;38053;53.100;6.078;2024-01-27T08:43:21;2.60;99.90
52044;DHT22;38053;53.100;6.078;2024-01-27T08:45:47;2.60;99.90
52044;DHT22;38053;53.100;6.078;2024-01-27T08:48:12;2.70;99.90
52044;DHT22;38053;53.100;6.078;2024-01-27T08:50:39;2.80;99.90
52044;DHT22;38053;53.100;6.078;2024-01-27T08:53:04;2.80;99.90
52044;DHT22;38053;53.100;6.078;2024-01-27T08:55:30;2.90;99.90
52044;DHT22;38053;53.100;6.078;2024-01-27T08:57:56;3.00;99.90
52044;DHT22;38053;53.100;6.078;2024-01-27T09:00:22;3.10;99.90
52044;DHT22;38053;53.100;6.078;2024-01-27T09:02:48;3.20;99.90
52044;DHT22;38053;53.100;6.078;2024-01-27T09:05:13;3.30;99.90
52044;DHT22;38053;53.100;6.078;2024-01-27T09:07:39;3.40;99.90
52044;DHT22;38053;53.100;6.078;2024-01-27T09:10:05;3.50;99.90
52044;DHT22;38053;53.100;6.078;2024-01-27T09:12:32;3.60;99.90
52044;DHT22;38053;53.100;6.078;2024-01-27T09:14:58;3.60;99.90
52044;DHT22;38053;53.100;6.078;2024-01-27T09:17:23;3.70;99.90
52044;DHT22;38053;53.100;6.078;2024-01-27T09:19:49;3.80;99.90
52044;DHT22;38053;53.100;6.078;2024-01-27T09:22:16;3.80;99.90
52044;DHT22;38053;53.100;6.078;2024-01-27T09:24:41;3.90;99.90
52044;DHT22;38053;53.100;6.078;2024-01-27T09:27:16;4.00;99.90
52044;DHT22;38053;53.100;6.078;2024-01-27T09:29:42;4.00;99.90
52044;DHT22;38053;53.100;6.078;2024-01-27T09:32:08;4.10;99.90
52044;DHT22;38053;53.100;6.078;2024-01-27T09:34:34;4.20;99.90
52044;DHT22;38053;53.100;6.078;2024-01-27T09:37:00;4.30;99.90
52044;DHT22;38053;53.100;6.078;2024-01-27T09:39:25;4.30;99.90
52044;DHT22;38053;53.100;6.078;2024-01-27T09:41:51;4.40;99.90
52044;DHT22;38053;53.100;6.078;2024-01-27T09:44:18;4.40;99.90
52044;DHT22;38053;53.100;6.078;2024-01-27T09:46:46;4.50;99.90
52044;DHT22;38053;53.100;6.078;2024-01-27T09:49:14;4.60;99.90
52044;DHT22;38053;53.100;6.078;2024-01-27T09:51:41;4.70;99.90
52044;DHT22;38053;53.100;6.078;2024-01-27T09:54:07;4.80;99.90
52044;DHT22;38053;53.100;6.078;2024-01-27T09:56:33;4.80;99.90
52044;DHT22;38053;53.100;6.078;2024-01-27T09:58:59;4.90;99.90
52044;DHT22;38053;53.100;6.078;2024-01-27T10:01:26;5.00;99.90
52044;DHT22;38053;53.100;6.078;2024-01-27T10:03:54;5.10;99.90
52044;DHT22;38053;53.100;6.078;2024-01-27T10:06:20;5.20;99.90
52044;DHT22;38053;53.100;6.078;2024-01-27T10:08:53;5.30;99.90
52044;DHT22;38053;53.100;6.078;2024-01-27T10:11:20;5.40;99.90
52044;DHT22;38053;53.100;6.078;2024-01-27T10:13:57;5.40;99.90
52044;DHT22;38053;53.100;6.078;2024-01-27T10:16:23;5.50;99.90
52044;DHT22;38053;53.100;6.078;2024-01-27T10:18:59;5.50;99.90
52044;DHT22;38053;53.100;6.078;2024-01-27T10:21:26;5.60;99.90
52044;DHT22;38053;53.100;6.078;2024-01-27T10:23:52;5.70;99.90
52044;DHT22;38053;53.100;6.078;2024-01-27T10:26:20;5.80;99.90
52044;DHT22;38053;53.100;6.078;2024-01-27T10:28:54;5.80;99.90
52044;DHT22;38053;53.100;6.078;2024-01-27T10:31:20;5.90;99.90
52044;DHT22;38053;53.100;6.078;2024-01-27T10:33:52;5.90;99.90
52044;DHT22;38053;53.100;6.078;2024-01-27T10:36:19;6.00;99.90
52044;DHT22;38053;53.100;6.078;2024-01-27T10:38:45;6.00;99.90
52044;DHT22;38053;53.100;6.078;2024-01-27T10:41:11;6.10;99.90
52044;DHT22;38053;53.100;6.078;2024-01-27T10:43:38;6.10;99.90
52044;DHT22;38053;53.100;6.078;2024-01-27T10:46:08;6.10;99.90
52044;DHT22;38053;53.100;6.078;2024-01-27T10:48:35;6.20;99.90
52044;DHT22;38053;53.100;6.078;2024-01-27T10:51:09;6.20;99.90
52044;DHT22;38053;53.100;6.078;2024-01-27T10:53:35;6.30;99.90
52044;DHT22;38053;53.100;6.078;2024-01-27T10:56:03;6.40;99.90
52044;DHT22;38053;53.100;6.078;2024-01-27T10:58:33;6.40;99.90
52044;DHT22;38053;53.100;6.078;2024-01-27T11:01:10;6.50;99.90
52044;DHT22;38053;53.100;6.078;2024-01-27T11:03:38;6.60;99.90
52044;DHT22;38053;53.100;6.078;2024-01-27T11:06:06;6.80;99.90
52044;DHT22;38053;53.100;6.078;2024-01-27T11:08:36;6.90;99.90
52044;DHT22;38053;53.100;6.078;2024-01-27T11:11:03;7.00;99.90
52044;DHT22;38053;53.100;6.078;2024-01-27T11:13:30;7.00;99.90
52044;DHT22;38053;53.100;6.078;2024-01-27T11:15:57;6.90;99.90
52044;DHT22;38053;53.100;6.078;2024-01-27T11:18:26;6.90;99.90
52044;DHT22;38053;53.100;6.078;2024-01-27T11:20:56;6.90;99.90
52044;DHT22;38053;53.100;6.078;2024-01-27T11:23:32;6.90;99.90
52044;DHT22;38053;53.100;6.078;2024-01-27T11:26:08;6.90;99.90
52044;DHT22;38053;53.100;6.078;2024-01-27T11:28:34;7.00;99.90
52044;DHT22;38053;53.100;6.078;2024-01-27T11:31:05;7.00;99.90
52044;DHT22;38053;53.100;6.078;2024-01-27T11:33:31;7.10;99.90
52044;DHT22;38053;53.100;6.078;2024-01-27T11:36:04;7.20;99.90
52044;DHT22;38053;53.100;6.078;2024-01-27T11:38:33;7.40;99.90
52044;DHT22;38053;53.100;6.078;2024-01-27T11:41:02;7.60;99.90
52044;DHT22;38053;53.100;6.078;2024-01-27T11:43:28;7.80;99.90
52044;DHT22;38053;53.100;6.078;2024-01-27T11:45:58;8.00;99.90
52044;DHT22;38053;53.100;6.078;2024-01-27T11:48:24;8.10;99.90
52044;DHT22;38053;53.100;6.078;2024-01-27T11:51:05;8.30;99.90
52044;DHT22;38053;53.100;6.078;2024-01-27T11:53:31;8.40;99.90
52044;DHT22;38053;53.100;6.078;2024-01-27T11:55:57;8.50;99.90
52044;DHT22;38053;53.100;6.078;2024-01-27T11:58:24;8.60;99.90
52044;DHT22;38053;53.100;6.078;2024-01-27T12:00:50;8.60;99.90
52044;DHT22;38053;53.100;6.078;2024-01-27T12:03:16;8.70;99.90
52044;DHT22;38053;53.100;6.078;2024-01-27T12:05:41;8.90;99.90
52044;DHT22;38053;53.100;6.078;2024-01-27T12:08:08;9.20;99.90
52044;DHT22;38053;53.100;6.078;2024-01-27T12:10:33;9.20;99.90
52044;DHT22;38053;53.100;6.078;2024-01-27T12:13:00;9.20;99.90
52044;DHT22;38053;53.100;6.078;2024-01-27T12:15:29;9.20;99.90
52044;DHT22;38053;53.100;6.078;2024-01-27T12:17:55;9.20;99.90
52044;DHT22;38053;53.100;6.078;2024-01-27T12:20:22;9.30;99.90
52044;DHT22;38053;53.100;6.078;2024-01-27T12:22:48;9.30;99.90
52044;DHT22;38053;53.100;6.078;2024-01-27T12:25:34;9.30;99.90
52044;DHT22;38053;53.100;6.078;2024-01-27T12:28:03;9.20;99.90
52044;DHT22;38053;53.100;6.078;2024-01-27T12:30:30;9.10;99.90
52044;DHT22;38053;53.100;6.078;2024-01-27T12:32:56;9.10;99.90
52044;DHT22;38053;53.100;6.078;2024-01-27T12:35:23;9.10;99.90
52044;DHT22;38053;53.100;6.078;2024-01-27T12:37:50;9.10;99.90
52044;DHT22;38053;53.100;6.078;2024-01-27T12:40:19;9.10;99.90
52044;DHT22;38053;53.100;6.078;2024-01-27T12:42:46;9.20;99.90
52044;DHT22;38053;53.100;6.078;2024-01-27T12:45:11;9.10;99.90
52044;DHT22;38053;53.100;6.078;2024-01-27T12:47:38;9.00;99.90
52044;DHT22;38053;53.100;6.078;2024-01-27T12:50:05;9.00;99.90
52044;DHT22;38053;53.100;6.078;2024-01-27T12:52:31;9.00;99.90
52044;DHT22;38053;53.100;6.078;2024-01-27T12:54:57;9.00;99.90
52044;DHT22;38053;53.100;6.078;2024-01-27T12:57:23;9.00;99.90
52044;DHT22;38053;53.100;6.078;2024-01-27T12:59:49;8.90;99.90
52044;DHT22;38053;53.100;6.078;2024-01-27T13:02:14;8.90;99.90
52044;DHT22;38053;53.100;6.078;2024-01-27T13:04:41;8.90;99.90
52044;DHT22;38053;53.100;6.078;2024-01-27T13:07:07;8.90;99.90
52044;DHT22;38053;53.100;6.078;2024-01-27T13:09:33;8.90;99.90
52044;DHT22;38053;53.100;6.078;2024-01-27T13:11:59;8.90;99.90
52044;DHT22;38053;53.100;6.078;2024-01-27T13:14:24;8.90;99.90
52044;DHT22;38053;53.100;6.078;2024-01-27T13:16:50;8.80;99.90
52044;DHT22;38053;53.100;6.078;2024-01-27T13:19:19;8.80;99.90
52044;DHT22;38053;53.100;6.078;2024-01-27T13:21:44;8.90;99.90
52044;DHT22;38053;53.100;6.078;2024-01-27T13:24:10;8.90;99.90
52044;DHT22;38053;53.100;6.078;2024-01-27T13:26:54;9.00;99.90
52044;DHT22;38053;53.100;6.078;2024-01-27T13:29:20;9.00;99.90
52044;DHT22;38053;53.100;6.078;2024-01-27T13:31:45;8.90;99.90
52044;DHT22;38053;53.100;6.078;2024-01-27T13:34:12;8.80;99.90
52044;DHT22;38053;53.100;6.078;2024-01-27T13:36:38;8.70;99.90
52044;DHT22;38053;53.100;6.078;2024-01-27T13:39:06;8.60;99.90
52044;DHT22;38053;53.100;6.078;2024-01-27T13:41:31;8.50;99.90
52044;DHT22;38053;53.100;6.078;2024-01-27T13:43:57;8.40;99.90
52044;DHT22;38053;53.100;6.078;2024-01-27T13:46:23;8.30;99.90
52044;DHT22;38053;53.100;6.078;2024-01-27T13:48:49;8.30;99.90
52044;DHT22;38053;53.100;6.078;2024-01-27T13:51:15;8.20;99.90
52044;DHT22;38053;53.100;6.078;2024-01-27T13:53:47;8.20;99.90
52044;DHT22;38053;53.100;6.078;2024-01-27T13:56:14;8.20;99.90
52044;DHT22;38053;53.100;6.078;2024-01-27T13:58:40;8.10;99.90
52044;DHT22;38053;53.100;6.078;2024-01-27T14:01:06;8.10;99.90
52044;DHT22;38053;53.100;6.078;2024-01-27T14:03:32;8.20;99.90
52044;DHT22;38053;53.100;6.078;2024-01-27T14:05:57;8.30;99.90
52044;DHT22;38053;53.100;6.078;2024-01-27T14:08:23;8.40;99.90
52044;DHT22;38053;53.100;6.078;2024-01-27T14:10:48;8.40;99.90
52044;DHT22;38053;53.100;6.078;2024-01-27T14:13:17;8.40;99.90
52044;DHT22;38053;53.100;6.078;2024-01-27T14:15:42;8.50;99.90
52044;DHT22;38053;53.100;6.078;2024-01-27T14:18:08;8.70;99.90
52044;DHT22;38053;53.100;6.078;2024-01-27T14:21:00;8.70;99.90
52044;DHT22;38053;53.100;6.078;2024-01-27T14:23:25;8.60;99.90
52044;DHT22;38053;53.100;6.078;2024-01-27T14:25:52;8.50;99.90
52044;DHT22;38053;53.100;6.078;2024-01-27T14:28:18;8.40;99.90
52044;DHT22;38053;53.100;6.078;2024-01-27T14:30:44;8.30;99.90
52044;DHT22;38053;53.100;6.078;2024-01-27T14:33:11;8.20;99.90
52044;DHT22;38053;53.100;6.078;2024-01-27T14:35:36;8.10;99.90
52044;DHT22;38053;53.100;6.078;2024-01-27T14:38:02;8.10;99.90
52044;DHT22;38053;53.100;6.078;2024-01-27T14:40:31;8.00;99.90
52044;DHT22;38053;53.100;6.078;2024-01-27T14:42:57;7.90;99.90
52044;DHT22;38053;53.100;6.078;2024-01-27T14:45:23;7.90;99.90
52044;DHT22;38053;53.100;6.078;2024-01-27T14:47:48;7.80;99.90
52044;DHT22;38053;53.100;6.078;2024-01-27T14:50:14;7.70;99.90
52044;DHT22;38053;53.100;6.078;2024-01-27T14:52:40;7.60;99.90
52044;DHT22;38053;53.100;6.078;2024-01-27T14:55:07;7.60;99.90
52044;DHT22;38053;53.100;6.078;2024-01-27T14:57:34;7.40;99.90
52044;DHT22;38053;53.100;6.078;2024-01-27T15:00:00;7.40;99.90
52044;DHT22;38053;53.100;6.078;2024-01-27T15:02:27;7.30;99.90
52044;DHT22;38053;53.100;6.078;2024-01-27T15:04:57;7.20;99.90
52044;DHT22;38053;53.100;6.078;2024-01-27T15:07:23;7.10;99.90
52044;DHT22;38053;53.100;6.078;2024-01-27T15:09:53;7.00;99.90
52044;DHT22;38053;53.100;6.078;2024-01-27T15:12:18;6.90;99.90
52044;DHT22;38053;53.100;6.078;2024-01-27T15:14:44;6.90;99.90
52044;DHT22;38053;53.100;6.078;2024-01-27T15:17:10;6.80;99.90
52044;DHT22;38053;53.100;6.078;2024-01-27T15:19:36;6.70;99.90
52044;DHT22;38053;53.100;6.078;2024-01-27T15:22:01;6.70;99.90
52044;DHT22;38053;53.100;6.078;2024-01-27T15:24:27;6.60;99.90
52044;DHT22;38053;53.100;6.078;2024-01-27T15:26:53;6.50;99.90
52044;DHT22;38053;53.100;6.078;2024-01-27T15:29:19;6.50;99.90
52044;DHT22;38053;53.100;6.078;2024-01-27T15:31:44;6.40;99.90
52044;DHT22;38053;53.100;6.078;2024-01-27T15:34:11;6.30;99.90
52044;DHT22;38053;53.100;6.078;2024-01-27T15:36:37;6.20;99.90
52044;DHT22;38053;53.100;6.078;2024-01-27T15:39:03;6.20;99.90
52044;DHT22;38053;53.100;6.078;2024-01-27T15:41:28;6.10;99.90
52044;DHT22;38053;53.100;6.078;2024-01-27T15:43:54;6.00;99.90